createdAt,value
2018-10-16T00:00:53.890Z,11.10
2018-10-16T00:03:21.389Z,11.10
2018-10-16T00:05:48.857Z,11.10
2018-10-16T00:08:16.326Z,11.10
2018-10-16T00:10:45.747Z,11.10
2018-10-16T00:13:13.221Z,11.10
2018-10-16T00:15:40.735Z,11.10
2018-10-16T00:18:09.925Z,11.10
2018-10-16T00:20:38.127Z,11.10
2018-10-16T00:23:05.995Z,11.10
2018-10-16T00:25:33.504Z,11.00
2018-10-16T00:28:00.955Z,11.00
2018-10-16T00:30:28.463Z,10.90
2018-10-16T00:32:56.053Z,10.80
2018-10-16T00:35:23.605Z,10.80
2018-10-16T00:37:51.127Z,10.80
2018-10-16T00:40:18.666Z,10.70
2018-10-16T00:42:46.136Z,10.60
2018-10-16T00:45:13.650Z,10.60
2018-10-16T00:47:41.170Z,10.50
2018-10-16T00:50:08.818Z,10.50
2018-10-16T00:52:36.578Z,10.40
2018-10-16T00:55:04.815Z,10.40
2018-10-16T00:57:32.212Z,10.30
2018-10-16T00:59:59.703Z,10.30
2018-10-16T01:02:27.171Z,10.20
2018-10-16T01:04:54.664Z,10.20
2018-10-16T01:07:22.131Z,10.10
2018-10-16T01:09:49.617Z,10.10
2018-10-16T01:12:17.123Z,10.10
2018-10-16T01:14:45.447Z,10.00
2018-10-16T01:17:12.925Z,10.00
2018-10-16T01:19:40.487Z,10.00
2018-10-16T01:22:08.005Z,10.00
2018-10-16T01:24:35.475Z,10.00
2018-10-16T01:27:03.006Z,10.00
2018-10-16T01:29:30.498Z,9.90
2018-10-16T01:31:58.126Z,9.90
2018-10-16T01:34:25.606Z,9.90
2018-10-16T01:36:53.062Z,9.80
2018-10-16T01:39:20.582Z,9.80
2018-10-16T01:41:48.036Z,9.70
2018-10-16T01:44:15.535Z,9.70
2018-10-16T01:46:43.077Z,9.70
2018-10-16T01:49:10.547Z,9.60
2018-10-16T01:51:38.023Z,9.60
2018-10-16T01:54:05.515Z,9.60
2018-10-16T01:56:32.995Z,9.50
2018-10-16T01:59:00.445Z,9.50
2018-10-16T02:01:27.991Z,9.50
2018-10-16T02:03:55.463Z,9.50
2018-10-16T02:06:22.944Z,9.50
2018-10-16T02:08:50.394Z,9.50
2018-10-16T02:11:17.877Z,9.50
2018-10-16T02:13:45.341Z,9.50
2018-10-16T02:16:12.824Z,9.50
2018-10-16T02:18:40.312Z,9.50
2018-10-16T02:21:07.795Z,9.50
2018-10-16T02:23:35.581Z,9.60
2018-10-16T02:26:03.029Z,9.70
2018-10-16T02:28:30.717Z,9.70
2018-10-16T02:30:58.193Z,9.70
2018-10-16T02:33:25.668Z,9.80
2018-10-16T02:35:53.102Z,9.80
2018-10-16T02:38:20.578Z,9.80
2018-10-16T02:40:48.079Z,9.80
2018-10-16T02:43:15.540Z,9.80
2018-10-16T02:45:43.014Z,9.90
2018-10-16T02:48:10.508Z,9.80
2018-10-16T02:50:38.012Z,9.90
2018-10-16T02:53:05.516Z,9.90
2018-10-16T02:55:33.025Z,9.90
2018-10-16T02:58:00.569Z,9.90
2018-10-16T03:00:28.104Z,9.90
2018-10-16T03:02:55.585Z,9.80
2018-10-16T03:05:23.074Z,9.90
2018-10-16T03:07:50.541Z,9.90
2018-10-16T03:10:18.053Z,9.90
2018-10-16T03:12:45.547Z,9.90
2018-10-16T03:15:13.430Z,9.90
2018-10-16T03:17:41.020Z,9.90
2018-10-16T03:20:09.645Z,9.90
2018-10-16T03:22:37.618Z,9.90
2018-10-16T03:25:06.506Z,9.90
2018-10-16T03:27:33.976Z,9.90
2018-10-16T03:30:01.446Z,9.90
2018-10-16T03:32:28.978Z,10.00
2018-10-16T03:34:56.460Z,10.00
2018-10-16T03:37:23.981Z,10.00
2018-10-16T03:39:51.615Z,10.00
2018-10-16T03:42:19.105Z,10.00
2018-10-16T03:44:46.553Z,10.00
2018-10-16T03:47:14.055Z,10.00
2018-10-16T03:49:41.544Z,10.00
2018-10-16T03:52:08.980Z,10.00
2018-10-16T03:54:36.468Z,10.00
2018-10-16T03:57:03.926Z,10.00
2018-10-16T03:59:31.434Z,10.00
2018-10-16T04:01:58.921Z,10.00
2018-10-16T04:04:26.402Z,10.00
2018-10-16T04:06:54.020Z,10.00
2018-10-16T04:09:21.410Z,10.00
2018-10-16T04:11:48.932Z,10.00
2018-10-16T04:14:16.425Z,10.10
2018-10-16T04:16:43.938Z,10.10
2018-10-16T04:19:11.439Z,10.10
2018-10-16T04:21:43.281Z,10.10
2018-10-16T04:24:10.936Z,10.10
2018-10-16T04:26:38.393Z,10.20
2018-10-16T04:29:06.276Z,10.20
2018-10-16T04:31:33.751Z,10.20
2018-10-16T04:34:01.275Z,10.20
2018-10-16T04:36:28.783Z,10.20
2018-10-16T04:38:56.306Z,10.30
2018-10-16T04:41:23.826Z,10.30
2018-10-16T04:43:51.953Z,10.40
2018-10-16T04:46:19.409Z,10.40
2018-10-16T04:48:46.886Z,10.40
2018-10-16T04:51:14.368Z,10.40
2018-10-16T04:53:41.851Z,10.40
2018-10-16T04:56:09.340Z,10.40
2018-10-16T04:58:36.870Z,10.40
2018-10-16T05:01:04.485Z,10.40
2018-10-16T05:03:31.994Z,10.40
2018-10-16T05:05:59.514Z,10.40
2018-10-16T05:08:26.996Z,10.40
2018-10-16T05:10:54.486Z,10.40
2018-10-16T05:13:22.018Z,10.40
2018-10-16T05:15:49.629Z,10.40
2018-10-16T05:18:17.136Z,10.50
2018-10-16T05:20:44.623Z,10.40
2018-10-16T05:23:12.101Z,10.50
2018-10-16T05:25:39.597Z,10.40
2018-10-16T05:28:07.091Z,10.40
2018-10-16T05:30:34.589Z,10.40
2018-10-16T05:33:02.129Z,10.50
2018-10-16T05:35:29.617Z,10.50
2018-10-16T05:37:57.078Z,10.50
2018-10-16T05:40:24.603Z,10.50
2018-10-16T05:42:52.078Z,10.60
2018-10-16T05:45:19.638Z,10.60
2018-10-16T05:47:47.150Z,10.60
2018-10-16T05:50:14.711Z,10.60
2018-10-16T05:52:42.205Z,10.70
2018-10-16T05:55:09.998Z,10.60
2018-10-16T05:57:37.470Z,10.70
2018-10-16T06:00:16.920Z,10.70
2018-10-16T06:02:45.278Z,10.70
2018-10-16T06:05:13.118Z,10.70
2018-10-16T06:07:41.289Z,10.70
2018-10-16T06:10:08.789Z,10.80
2018-10-16T06:12:36.269Z,10.80
2018-10-16T06:15:04.295Z,10.80
2018-10-16T06:17:31.759Z,10.80
2018-10-16T06:19:59.221Z,10.90
2018-10-16T06:22:26.785Z,10.90
2018-10-16T06:24:54.250Z,10.90
2018-10-16T06:27:21.781Z,10.90
2018-10-16T06:29:49.279Z,11.00
2018-10-16T06:32:16.783Z,11.00
2018-10-16T06:34:44.224Z,11.10
2018-10-16T06:37:11.746Z,11.10
2018-10-16T06:39:39.248Z,11.20
2018-10-16T06:42:06.758Z,11.20
2018-10-16T06:44:34.228Z,11.30
2018-10-16T06:47:01.741Z,11.40
2018-10-16T06:49:29.326Z,11.40
2018-10-16T06:51:56.816Z,11.50
2018-10-16T06:54:24.253Z,11.50
2018-10-16T06:56:51.756Z,11.60
2018-10-16T06:59:19.256Z,11.60
2018-10-16T07:01:46.740Z,11.70
2018-10-16T07:04:14.210Z,11.80
2018-10-16T07:06:41.760Z,11.80
2018-10-16T07:09:09.450Z,11.90
2018-10-16T07:11:38.369Z,12.00
2018-10-16T07:14:08.025Z,12.10
2018-10-16T07:16:35.556Z,12.30
2018-10-16T07:19:03.045Z,12.40
2018-10-16T07:21:30.508Z,12.60
2018-10-16T07:23:58.004Z,12.80
2018-10-16T07:26:25.484Z,12.90
2018-10-16T07:28:52.993Z,13.20
2018-10-16T07:31:20.525Z,13.40
2018-10-16T07:33:48.091Z,13.70
2018-10-16T07:36:15.709Z,13.90
2018-10-16T07:38:43.170Z,14.20
2018-10-16T07:41:11.300Z,14.50
2018-10-16T07:43:38.837Z,14.90
2018-10-16T07:46:06.346Z,15.90
2018-10-16T07:48:33.900Z,17.70
2018-10-16T07:51:01.393Z,19.50
2018-10-16T07:53:28.911Z,21.10
2018-10-16T07:55:56.557Z,22.30
2018-10-16T07:58:24.036Z,23.10
2018-10-16T08:00:51.524Z,23.50
2018-10-16T08:03:19.022Z,23.60
2018-10-16T08:05:46.534Z,24.40
2018-10-16T08:08:14.031Z,25.20
2018-10-16T08:10:41.476Z,25.40
2018-10-16T08:13:08.991Z,25.00
2018-10-16T08:15:36.609Z,25.20
2018-10-16T08:18:04.306Z,26.20
2018-10-16T08:20:31.859Z,27.20
2018-10-16T08:22:59.458Z,28.40
2018-10-16T08:25:28.043Z,29.20
2018-10-16T08:27:55.547Z,30.10
2018-10-16T08:30:23.172Z,31.60
2018-10-16T08:32:50.723Z,32.80
2018-10-16T08:35:18.246Z,33.70
2018-10-16T08:39:56.563Z,34.30
2018-10-16T08:43:39.586Z,34.90
2018-10-16T08:46:18.995Z,35.70
2018-10-16T08:48:58.396Z,35.30
2018-10-16T08:51:38.192Z,34.80
2018-10-16T08:54:06.162Z,34.20
2018-10-16T08:56:33.685Z,33.30
2018-10-16T08:59:01.584Z,32.70
2018-10-16T09:01:29.431Z,32.00
2018-10-16T09:03:56.958Z,30.80
2018-10-16T09:06:24.496Z,29.50
2018-10-16T09:08:51.947Z,28.20
2018-10-16T09:11:19.451Z,27.20
2018-10-16T09:13:47.066Z,26.10
2018-10-16T09:16:14.553Z,25.10
2018-10-16T09:18:42.013Z,24.10
2018-10-16T09:21:09.570Z,23.30
2018-10-16T09:23:37.043Z,22.50
2018-10-16T09:26:05.046Z,21.80
2018-10-16T09:28:32.523Z,21.40
2018-10-16T09:31:00.102Z,21.10
2018-10-16T09:33:27.534Z,20.80
2018-10-16T09:35:54.988Z,20.70
2018-10-16T09:38:22.469Z,20.40
2018-10-16T09:40:50.891Z,20.30
2018-10-16T09:43:18.369Z,20.10
2018-10-16T09:45:45.856Z,19.90
2018-10-16T09:48:13.326Z,19.80
2018-10-16T09:50:40.921Z,19.80
2018-10-16T09:53:08.546Z,19.70
2018-10-16T09:55:36.069Z,19.60
2018-10-16T09:58:03.586Z,19.50
2018-10-16T10:00:36.779Z,19.50
2018-10-16T10:03:04.418Z,19.40
2018-10-16T10:05:31.954Z,19.40
2018-10-16T10:07:59.406Z,19.30
2018-10-16T10:10:26.884Z,19.20
2018-10-16T10:12:54.400Z,19.10
2018-10-16T10:15:21.874Z,19.00
2018-10-16T10:17:49.362Z,18.80
2018-10-16T10:20:16.838Z,18.70
2018-10-16T10:22:44.313Z,18.50
2018-10-16T10:25:11.891Z,18.50
2018-10-16T10:27:39.389Z,18.40
2018-10-16T10:30:09.147Z,18.30
2018-10-16T10:32:36.609Z,18.30
2018-10-16T10:35:05.245Z,18.30
2018-10-16T10:37:32.862Z,18.30
2018-10-16T10:40:00.396Z,18.30
2018-10-16T10:42:27.862Z,18.30
2018-10-16T10:44:55.414Z,18.30
2018-10-16T10:47:22.941Z,18.20
2018-10-16T10:49:50.743Z,18.20
2018-10-16T10:52:18.192Z,18.10
2018-10-16T10:54:45.693Z,18.10
2018-10-16T10:57:13.257Z,18.10
2018-10-16T10:59:40.714Z,18.20
2018-10-16T11:02:08.207Z,18.20
2018-10-16T11:04:35.853Z,18.30
2018-10-16T11:07:03.344Z,18.30
2018-10-16T11:09:30.817Z,18.40
2018-10-16T11:11:58.324Z,18.50
2018-10-16T11:14:26.838Z,18.60
2018-10-16T11:16:54.314Z,18.60
2018-10-16T11:19:22.469Z,18.70
2018-10-16T11:21:50.318Z,18.60
2018-10-16T11:24:17.797Z,18.60
2018-10-16T11:26:45.429Z,18.60
2018-10-16T11:29:13.045Z,18.60
2018-10-16T11:31:40.608Z,18.50
2018-10-16T11:34:08.146Z,18.60
2018-10-16T11:36:35.636Z,18.60
2018-10-16T11:39:04.814Z,18.70
2018-10-16T11:41:32.283Z,18.70
2018-10-16T11:43:59.785Z,18.70
2018-10-16T11:46:27.311Z,18.70
2018-10-16T11:48:54.803Z,18.80
2018-10-16T11:51:22.357Z,18.80
2018-10-16T11:53:49.855Z,18.90
2018-10-16T11:56:17.353Z,19.00
2018-10-16T11:58:44.747Z,19.10
2018-10-16T12:01:12.313Z,19.20
2018-10-16T12:03:39.807Z,19.20
2018-10-16T12:06:07.893Z,19.20
2018-10-16T12:08:35.350Z,19.20
2018-10-16T12:11:03.009Z,19.30
2018-10-16T12:13:30.710Z,19.30
2018-10-16T12:15:58.226Z,19.40
2018-10-16T12:18:41.346Z,19.50
2018-10-16T12:21:14.463Z,19.60
2018-10-16T12:23:41.915Z,19.60
2018-10-16T12:26:09.376Z,19.70
2018-10-16T12:28:36.880Z,19.80
2018-10-16T12:31:04.506Z,19.80
2018-10-16T12:33:31.893Z,19.90
2018-10-16T12:35:59.381Z,19.90
2018-10-16T12:38:26.966Z,20.00
2018-10-16T12:40:54.389Z,20.10
2018-10-16T12:43:22.029Z,20.00
2018-10-16T12:45:49.427Z,20.10
2018-10-16T12:48:16.917Z,20.10
2018-10-16T12:50:44.391Z,20.10
2018-10-16T12:53:11.961Z,20.00
2018-10-16T12:55:39.547Z,20.00
2018-10-16T12:58:07.041Z,19.90
2018-10-16T13:00:34.521Z,19.80
2018-10-16T13:03:02.032Z,19.70
2018-10-16T13:05:29.544Z,19.70
2018-10-16T13:07:57.081Z,19.70
2018-10-16T13:10:24.575Z,19.60
2018-10-16T13:12:52.105Z,19.60
2018-10-16T13:15:19.596Z,19.50
2018-10-16T13:17:47.105Z,19.40
2018-10-16T13:20:15.257Z,19.30
2018-10-16T13:22:44.312Z,19.10
2018-10-16T13:25:12.919Z,19.00
2018-10-16T13:27:40.416Z,19.00
2018-10-16T13:30:10.620Z,18.90
2018-10-16T13:32:38.090Z,18.80
2018-10-16T13:35:08.884Z,18.80
2018-10-16T13:37:36.315Z,18.80
2018-10-16T13:40:04.599Z,18.70
2018-10-16T13:42:32.155Z,18.70
2018-10-16T13:44:59.565Z,18.60
2018-10-16T13:47:27.141Z,18.60
2018-10-16T13:49:54.652Z,18.50
2018-10-16T13:52:22.341Z,18.50
2018-10-16T13:54:49.844Z,18.40
2018-10-16T13:57:17.349Z,18.40
2018-10-16T13:59:44.898Z,18.30
2018-10-16T14:02:12.452Z,18.30
2018-10-16T14:04:39.858Z,18.20
2018-10-16T14:07:07.372Z,18.20
2018-10-16T14:09:34.859Z,18.20
2018-10-16T14:12:02.397Z,18.20
2018-10-16T14:14:29.894Z,18.20
2018-10-16T14:16:57.439Z,18.20
2018-10-16T14:19:24.900Z,18.20
2018-10-16T14:21:52.506Z,18.20
2018-10-16T14:24:20.021Z,18.30
2018-10-16T14:26:47.577Z,18.20
2018-10-16T14:29:15.103Z,18.20
2018-10-16T14:31:42.577Z,18.20
2018-10-16T14:34:10.081Z,18.10
2018-10-16T14:36:37.697Z,18.10
2018-10-16T14:39:08.275Z,18.10
2018-10-16T14:41:36.465Z,18.10
2018-10-16T14:44:04.422Z,18.10
2018-10-16T14:46:31.893Z,18.10
2018-10-16T14:48:59.379Z,18.10
2018-10-16T14:51:27.005Z,18.00
2018-10-16T14:53:54.538Z,18.00
2018-10-16T14:56:22.072Z,17.90
2018-10-16T14:58:49.533Z,17.90
2018-10-16T15:01:17.023Z,17.80
2018-10-16T15:03:44.585Z,17.70
2018-10-16T15:06:12.105Z,17.60
2018-10-16T15:08:39.581Z,17.50
2018-10-16T15:11:07.183Z,17.40
2018-10-16T15:13:34.698Z,17.30
2018-10-16T15:16:02.311Z,17.20
2018-10-16T15:18:29.743Z,17.10
2018-10-16T15:20:57.247Z,17.00
2018-10-16T15:23:24.852Z,16.90
2018-10-16T15:25:52.414Z,16.80
2018-10-16T15:28:19.884Z,16.60
2018-10-16T15:30:47.379Z,16.50
2018-10-16T15:33:14.973Z,16.40
2018-10-16T15:35:42.471Z,16.30
2018-10-16T15:38:09.952Z,16.20
2018-10-16T15:40:37.367Z,16.10
2018-10-16T15:43:04.914Z,16.00
2018-10-16T15:45:32.444Z,15.90
2018-10-16T15:47:59.985Z,15.70
2018-10-16T15:50:27.415Z,15.60
2018-10-16T15:52:54.895Z,15.50
2018-10-16T15:55:22.366Z,15.40
2018-10-16T15:57:49.865Z,15.30
2018-10-16T16:00:17.403Z,15.20
2018-10-16T16:02:44.892Z,15.10
2018-10-16T16:05:12.370Z,14.90
2018-10-16T16:07:40.024Z,14.80
2018-10-16T16:10:11.140Z,14.70
2018-10-16T16:12:38.844Z,14.70
2018-10-16T16:15:07.382Z,14.60
2018-10-16T16:17:34.874Z,14.50
2018-10-16T16:20:02.462Z,14.50
2018-10-16T16:22:29.910Z,14.40
2018-10-16T16:24:57.432Z,14.40
2018-10-16T16:27:24.918Z,14.30
2018-10-16T16:29:52.441Z,14.30
2018-10-16T16:32:19.947Z,14.30
2018-10-16T16:34:47.449Z,14.30
2018-10-16T16:37:14.927Z,14.20
2018-10-16T16:39:42.455Z,14.20
2018-10-16T16:42:09.994Z,14.20
2018-10-16T16:44:37.517Z,14.20
2018-10-16T16:47:05.368Z,14.10
2018-10-16T16:49:32.891Z,14.10
2018-10-16T16:52:00.526Z,14.10
2018-10-16T16:54:28.013Z,14.10
2018-10-16T16:56:55.514Z,14.10
2018-10-16T16:59:23.003Z,14.10
2018-10-16T17:01:51.680Z,14.10
2018-10-16T17:04:19.228Z,14.00
2018-10-16T17:06:46.676Z,14.00
2018-10-16T17:09:14.196Z,14.00
2018-10-16T17:11:41.710Z,14.00
2018-10-16T17:14:09.256Z,14.00
2018-10-16T17:16:36.852Z,14.00
2018-10-16T17:19:05.000Z,13.90
2018-10-16T17:21:32.554Z,13.90
2018-10-16T17:24:00.753Z,13.90
2018-10-16T17:26:28.315Z,13.80
2018-10-16T17:28:55.789Z,13.80
2018-10-16T17:31:23.373Z,13.80
2018-10-16T17:33:50.924Z,13.70
2018-10-16T17:36:18.767Z,13.70
2018-10-16T17:38:46.273Z,13.60
2018-10-16T17:41:15.087Z,13.60
2018-10-16T17:43:42.750Z,13.50
2018-10-16T17:46:10.379Z,13.50
2018-10-16T17:48:37.793Z,13.40
2018-10-16T17:51:05.589Z,13.40
2018-10-16T17:53:33.324Z,13.30
2018-10-16T17:56:01.560Z,13.20
2018-10-16T17:58:29.076Z,13.20
2018-10-16T18:00:56.706Z,13.20
2018-10-16T18:03:24.215Z,13.10
2018-10-16T18:05:51.728Z,13.00
2018-10-16T18:08:19.247Z,13.00
2018-10-16T18:10:46.794Z,12.90
2018-10-16T18:13:17.594Z,12.90
2018-10-16T18:15:47.245Z,12.80
2018-10-16T18:18:16.806Z,12.70
2018-10-16T18:20:44.349Z,12.70
2018-10-16T18:23:11.874Z,12.70
2018-10-16T18:25:40.796Z,12.70
2018-10-16T18:28:08.600Z,12.60
2018-10-16T18:30:36.505Z,12.60
2018-10-16T18:33:07.782Z,12.50
2018-10-16T18:35:39.649Z,12.50
2018-10-16T18:38:11.423Z,12.50
2018-10-16T18:40:42.936Z,12.50
2018-10-16T18:43:14.269Z,12.50
2018-10-16T18:45:41.997Z,12.40
2018-10-16T18:48:09.941Z,12.40
2018-10-16T18:50:37.496Z,12.40
2018-10-16T18:53:05.678Z,12.30
2018-10-16T18:55:33.204Z,12.30
2018-10-16T18:58:00.738Z,12.30
2018-10-16T19:00:28.254Z,12.30
2018-10-16T19:02:56.004Z,12.30
2018-10-16T19:05:23.574Z,12.20
2018-10-16T19:07:51.209Z,12.20
2018-10-16T19:10:18.876Z,12.20
2018-10-16T19:12:46.420Z,12.10
2018-10-16T19:15:15.556Z,12.10
2018-10-16T19:17:43.933Z,12.00
2018-10-16T19:20:12.570Z,12.00
2018-10-16T19:22:40.679Z,12.00
2018-10-16T19:25:09.211Z,11.90
2018-10-16T19:27:36.831Z,11.90
2018-10-16T19:30:05.356Z,11.80
2018-10-16T19:32:33.105Z,11.80
2018-10-16T19:35:00.624Z,11.80
2018-10-16T19:37:28.275Z,11.70
2018-10-16T19:39:55.835Z,11.70
2018-10-16T19:42:23.482Z,11.60
2018-10-16T19:44:51.081Z,11.60
2018-10-16T19:47:18.590Z,11.60
2018-10-16T19:49:46.136Z,11.50
2018-10-16T19:52:13.638Z,11.50
2018-10-16T19:54:41.280Z,11.40
2018-10-16T19:57:08.970Z,11.40
2018-10-16T19:59:36.436Z,11.30
2018-10-16T20:02:04.496Z,11.30
2018-10-16T20:04:32.023Z,11.30
2018-10-16T20:06:59.580Z,11.20
2018-10-16T20:09:27.023Z,11.20
2018-10-16T20:11:54.723Z,11.20
2018-10-16T20:14:22.296Z,11.10
2018-10-16T20:16:50.217Z,11.00
2018-10-16T20:19:17.748Z,11.00
2018-10-16T20:21:45.266Z,10.90
2018-10-16T20:24:12.850Z,10.90
2018-10-16T20:26:40.522Z,10.90
2018-10-16T20:29:08.093Z,10.80
2018-10-16T20:31:35.613Z,10.80
2018-10-16T20:34:03.794Z,10.70
2018-10-16T20:36:31.372Z,10.70
2018-10-16T20:38:59.455Z,10.70
2018-10-16T20:41:28.005Z,10.60
2018-10-16T20:43:55.519Z,10.60
2018-10-16T20:46:23.024Z,10.60
2018-10-16T20:48:50.517Z,10.50
2018-10-16T20:51:17.985Z,10.50
2018-10-16T20:53:45.456Z,10.50
2018-10-16T20:56:13.017Z,10.50
2018-10-16T20:58:40.826Z,10.40
2018-10-16T21:01:09.292Z,10.40
2018-10-16T21:03:36.783Z,10.40
2018-10-16T21:06:05.434Z,10.30
2018-10-16T21:08:32.806Z,10.30
2018-10-16T21:11:00.324Z,10.30
2018-10-16T21:13:27.863Z,10.20
2018-10-16T21:15:55.564Z,10.20
2018-10-16T21:18:23.078Z,10.20
2018-10-16T21:20:50.618Z,10.20
2018-10-16T21:23:18.244Z,10.20
2018-10-16T21:25:45.721Z,10.20
2018-10-16T21:28:13.220Z,10.20
2018-10-16T21:30:40.748Z,10.10
2018-10-16T21:33:08.240Z,10.10
2018-10-16T21:35:35.759Z,10.10
2018-10-16T21:38:03.317Z,10.00
2018-10-16T21:40:30.862Z,10.00
2018-10-16T21:42:58.384Z,10.00
2018-10-16T21:45:25.937Z,10.00
2018-10-16T21:47:53.399Z,10.00
2018-10-16T21:50:20.899Z,9.90
2018-10-16T21:52:48.380Z,9.90
2018-10-16T21:55:16.005Z,9.80
2018-10-16T21:57:43.486Z,9.80
2018-10-16T22:00:16.519Z,9.80
2018-10-16T22:02:50.427Z,9.80
2018-10-16T22:05:23.818Z,9.70
2018-10-16T22:07:53.138Z,9.70
2018-10-16T22:10:21.287Z,9.70
2018-10-16T22:12:48.860Z,9.60
2018-10-16T22:15:16.996Z,9.60
2018-10-16T22:17:44.446Z,9.50
2018-10-16T22:20:12.228Z,9.50
2018-10-16T22:22:40.039Z,9.50
2018-10-16T22:25:07.577Z,9.50
2018-10-16T22:27:35.036Z,9.40
2018-10-16T22:30:02.703Z,9.40
2018-10-16T22:32:30.653Z,9.40
2018-10-16T22:34:58.130Z,9.30
2018-10-16T22:37:25.605Z,9.30
2018-10-16T22:39:53.145Z,9.30
2018-10-16T22:42:20.659Z,9.30
2018-10-16T22:44:48.207Z,9.30
2018-10-16T22:47:15.779Z,9.30
2018-10-16T22:49:43.211Z,9.20
2018-10-16T22:52:10.764Z,9.20
2018-10-16T22:54:38.325Z,9.20
2018-10-16T22:57:05.820Z,9.10
2018-10-16T22:59:33.304Z,9.10
2018-10-16T23:02:00.828Z,9.10
2018-10-16T23:04:28.366Z,9.10
2018-10-16T23:06:55.987Z,9.00
2018-10-16T23:09:23.420Z,9.00
2018-10-16T23:11:50.911Z,9.00
2018-10-16T23:14:18.365Z,9.00
2018-10-16T23:16:45.849Z,9.00
2018-10-16T23:19:13.490Z,8.90
2018-10-16T23:21:40.965Z,8.90
2018-10-16T23:24:08.479Z,8.90
2018-10-16T23:26:36.022Z,8.80
2018-10-16T23:29:03.672Z,8.80
2018-10-16T23:31:31.084Z,8.80
2018-10-16T23:33:58.579Z,8.80
2018-10-16T23:36:26.077Z,8.80
2018-10-16T23:38:53.623Z,8.80
2018-10-16T23:41:21.098Z,8.80
2018-10-16T23:43:48.608Z,8.80
2018-10-16T23:46:16.103Z,8.80
2018-10-16T23:48:43.583Z,8.80
2018-10-16T23:51:11.033Z,8.80
2018-10-16T23:53:38.502Z,8.80
2018-10-16T23:56:06.011Z,8.80
2018-10-16T23:58:33.834Z,8.80
